Angleton, Texas
Current Conditions -  °F | °C
As of 5:11 PM on Sunday 21 Dec 2014 (Local Time) from KLBX Reporting Station
Overcast Overcast  
Wind Chill: 57°   Ceiling: 1400
Heat Index: 57°   Visibility: 10mi
Dew Point: 53°   Wind: 6mph
Humidity: 87%   Direction: 100°E
Pressure: 29.95"   Gusts: NA
Location:  29.16°N, 95.43°W
Report Text: KLBX 212311Z AUTO 10005KT 10SM OVC014 14/12 A2995 RMK AO2 T01390117
Loading
Personal Weather Stations






























Interactive Weather Map New forecast layout! Learn more

10-Day Weather Forecast

Advertisements
Track Severe Weather on mobile